Time;durP1;ratioP1;P1;durP2;ratioP2;P2;SDS_P1;SDS_P2;PMS_P1;PMS_P2;Temp;Humidity;BMP_temperature;BMP_pressure;BME280_temperature;BME280_humidity;BME280_pressure;Samples;Min_cycle;Max_cycle;Signal;HPM_P1;HPM_P2
2021/03/13 00:01:43;;;;;;;35.35;8.63;;;5.60;94.90;;;;;;4984033;28;20026;-82
2021/03/13 00:04:09;;;;;;;43.28;8.23;;;5.60;94.90;;;;;;4964154;28;20405;-83
2021/03/13 00:06:34;;;;;;;37.75;8.88;;;5.60;94.90;;;;;;4981475;28;21701;-83
2021/03/13 00:09:00;;;;;;;36.85;8.57;;;5.50;94.90;;;;;;4958295;28;20505;-82
2021/03/13 00:11:26;;;;;;;40.85;8.30;;;5.50;95.00;;;;;;4973525;28;20124;-82
2021/03/13 00:13:52;;;;;;;28.02;7.97;;;5.40;95.00;;;;;;4957198;28;20440;-83
2021/03/13 00:16:18;;;;;;;24.25;7.43;;;5.30;94.90;;;;;;4944188;28;20070;-83
2021/03/13 00:18:43;;;;;;;34.17;7.35;;;5.30;95.00;;;;;;4954525;28;20045;-81
2021/03/13 00:21:09;;;;;;;30.42;7.57;;;5.30;94.90;;;;;;4940862;28;20042;-81
2021/03/13 00:23:35;;;;;;;26.65;6.72;;;5.30;94.90;;;;;;4958993;28;20544;-82
2021/03/13 00:26:01;;;;;;;41.03;8.07;;;5.30;94.90;;;;;;4956378;28;20046;-81
2021/03/13 00:28:27;;;;;;;26.08;7.53;;;5.20;94.90;;;;;;4971463;28;20042;-81
2021/03/13 00:30:53;;;;;;;28.77;7.50;;;5.20;95.00;;;;;;4944479;28;20038;-82
2021/03/13 00:33:23;;;;;;;34.05;6.95;;;5.20;94.90;;;;;;4972040;28;20034;-83
2021/03/13 00:35:51;;;;;;;31.27;7.00;;;5.20;94.90;;;;;;4976220;28;20031;-81
2021/03/13 00:38:17;;;;;;;28.90;7.07;;;5.20;94.80;;;;;;4958475;28;20034;-81
2021/03/13 00:40:45;;;;;;;30.50;6.75;;;5.20;94.80;;;;;;4976623;28;20043;-81
2021/03/13 00:43:13;;;;;;;31.60;7.47;;;5.10;94.80;;;;;;4975269;28;20467;-83
2021/03/13 00:45:40;;;;;;;20.60;7.43;;;5.10;94.80;;;;;;4981278;28;20133;-81
2021/03/13 00:48:07;;;;;;;29.13;6.60;;;5.10;94.80;;;;;;4972720;28;20227;-82
2021/03/13 00:50:38;;;;;;;30.25;7.75;;;5.10;94.80;;;;;;4980439;28;21050;-81
2021/03/13 00:53:04;;;;;;;37.00;7.07;;;5.10;94.80;;;;;;4974150;28;20039;-81
2021/03/13 00:55:30;;;;;;;34.80;6.68;;;5.10;94.80;;;;;;4965002;28;20560;-82
2021/03/13 00:57:56;;;;;;;29.00;6.70;;;5.00;94.80;;;;;;4982384;28;20030;-79
2021/03/13 01:00:25;;;;;;;24.10;6.97;;;5.00;94.80;;;;;;4978422;28;20525;-81
2021/03/13 01:02:51;;;;;;;22.17;6.40;;;5.10;94.90;;;;;;4973335;28;20062;-82
2021/03/13 01:05:17;;;;;;;21.33;5.97;;;5.10;94.90;;;;;;4979072;28;20050;-80
2021/03/13 01:07:43;;;;;;;33.20;7.30;;;5.00;94.80;;;;;;4968652;28;20035;-82
2021/03/13 01:10:28;;;;;;;26.67;7.70;;;5.00;94.80;;;;;;4967142;28;20452;-79
2021/03/13 01:12:54;;;;;;;28.55;7.80;;;5.00;94.80;;;;;;4971204;28;20548;-81
2021/03/13 01:15:22;;;;;;;21.92;6.85;;;5.00;94.80;;;;;;4959513;28;20184;-79
2021/03/13 01:17:48;;;;;;;27.13;7.28;;;5.00;94.80;;;;;;4976916;28;20053;-79
2021/03/13 01:20:15;;;;;;;20.90;7.93;;;5.10;94.80;;;;;;4976584;28;20035;-78
2021/03/13 01:22:42;;;;;;;23.60;7.35;;;5.00;94.70;;;;;;4957369;28;20556;-81
2021/03/13 01:25:10;;;;;;;23.30;7.90;;;5.10;94.70;;;;;;4972758;28;20137;-81
2021/03/13 01:27:36;;;;;;;27.88;7.38;;;5.10;94.80;;;;;;4947520;28;20043;-81
2021/03/13 01:30:04;;;;;;;19.30;6.72;;;5.10;94.70;;;;;;4974369;28;20474;-81
2021/03/13 01:32:30;;;;;;;34.30;8.27;;;5.20;94.80;;;;;;4974867;28;20038;-78
2021/03/13 01:34:56;;;;;;;27.35;7.40;;;5.20;94.60;;;;;;4974270;28;20493;-78
2021/03/13 01:37:22;;;;;;;28.40;7.30;;;5.20;94.60;;;;;;4972374;28;20403;-80
2021/03/13 01:39:48;;;;;;;26.08;7.50;;;5.30;94.70;;;;;;4973339;28;20042;-81
2021/03/13 01:42:15;;;;;;;27.70;7.78;;;5.20;94.70;;;;;;4972694;28;20389;-80
2021/03/13 01:44:41;;;;;;;24.55;6.82;;;5.30;94.80;;;;;;4966498;28;20490;-80
2021/03/13 01:47:18;;;;;;;30.30;7.80;;;5.40;94.80;;;;;;4963729;28;20553;-82
2021/03/13 01:49:45;;;;;;;31.00;7.35;;;5.40;94.70;;;;;;4970758;28;20034;-81
2021/03/13 01:52:12;;;;;;;29.13;7.97;;;5.40;94.70;;;;;;4982656;28;20065;-81
2021/03/13 01:54:38;;;;;;;26.73;7.95;;;5.40;94.60;;;;;;4971921;28;20050;-80
2021/03/13 01:57:05;;;;;;;26.42;7.15;;;5.50;94.70;;;;;;4975132;28;20417;-78
2021/03/13 01:59:31;;;;;;;30.92;7.93;;;5.50;94.60;;;;;;4983718;28;20058;-81
2021/03/13 02:01:57;;;;;;;27.05;7.03;;;5.50;94.50;;;;;;4974909;28;20039;-79
2021/03/13 02:04:24;;;;;;;29.52;7.30;;;5.50;94.50;;;;;;4979101;28;20069;-79
2021/03/13 02:07:01;;;;;;;34.17;7.40;;;5.50;94.50;;;;;;4972710;28;20275;-78
2021/03/13 02:09:41;;;;;;;29.90;7.22;;;5.50;94.70;;;;;;4977726;28;20416;-78
2021/03/13 02:12:22;;;;;;;24.80;7.07;;;5.50;94.60;;;;;;4978026;28;20030;-80
2021/03/13 02:15:23;;;;;;;28.00;6.63;;;5.50;94.70;;;;;;4983904;28;20597;-80
2021/03/13 02:18:06;;;;;;;32.20;7.55;;;5.50;94.70;;;;;;4970434;28;20050;-79
2021/03/13 02:21:02;;;;;;;34.03;7.93;;;5.50;94.80;;;;;;4971148;28;20042;-80
2021/03/13 02:23:31;;;;;;;26.50;7.40;;;5.50;94.80;;;;;;4966559;28;20864;-81
2021/03/13 02:26:17;;;;;;;27.10;7.65;;;5.60;94.80;;;;;;4968222;28;20046;-78
2021/03/13 02:28:50;;;;;;;22.48;7.40;;;5.60;94.80;;;;;;4977234;28;20394;-79
2021/03/13 02:31:18;;;;;;;21.73;6.65;;;5.60;94.70;;;;;;4974005;28;20402;-79
2021/03/13 02:33:48;;;;;;;29.50;7.22;;;5.60;94.70;;;;;;4968104;28;20092;-80
2021/03/13 02:36:19;;;;;;;26.08;7.68;;;5.60;94.70;;;;;;4959150;28;20156;-80
2021/03/13 02:38:53;;;;;;;26.85;7.07;;;5.60;94.70;;;;;;4955662;28;20455;-80
2021/03/13 02:41:34;;;;;;;18.40;7.40;;;5.70;94.50;;;;;;4972192;28;20117;-79
2021/03/13 02:44:02;;;;;;;22.00;7.10;;;5.70;94.50;;;;;;4965556;28;20030;-79
2021/03/13 02:46:33;;;;;;;29.17;7.00;;;5.80;94.50;;;;;;4966055;28;20133;-79
2021/03/13 02:49:00;;;;;;;26.48;6.70;;;5.70;94.40;;;;;;4972231;28;20027;-81
2021/03/13 02:51:28;;;;;;;23.20;6.85;;;5.70;94.50;;;;;;4961842;28;20152;-79
2021/03/13 02:53:56;;;;;;;16.25;5.88;;;5.70;94.50;;;;;;4964205;28;20164;-79
2021/03/13 02:56:23;;;;;;;26.65;5.95;;;5.70;94.40;;;;;;4972798;28;20038;-78
2021/03/13 02:58:54;;;;;;;22.73;6.53;;;5.70;94.30;;;;;;4970061;28;20038;-80
2021/03/13 03:01:21;;;;;;;21.55;6.10;;;5.70;94.40;;;;;;4971847;28;20038;-83
2021/03/13 03:03:51;;;;;;;21.70;6.47;;;5.70;94.30;;;;;;4955169;28;20497;-79
2021/03/13 03:06:18;;;;;;;31.88;6.25;;;5.80;94.40;;;;;;4971317;28;20066;-79
2021/03/13 03:08:46;;;;;;;24.67;5.93;;;5.70;94.40;;;;;;4969122;28;20112;-82
2021/03/13 03:11:13;;;;;;;22.10;5.65;;;5.80;94.80;;;;;;4981477;28;20060;-81
2021/03/13 03:13:40;;;;;;;15.13;4.70;;;5.80;94.40;;;;;;4976602;28;20038;-81
2021/03/13 03:16:07;;;;;;;18.58;5.75;;;5.80;94.50;;;;;;4962031;28;20046;-82
2021/03/13 03:18:34;;;;;;;21.73;5.88;;;5.80;94.50;;;;;;4954753;28;20045;-79
2021/03/13 03:21:01;;;;;;;15.77;5.82;;;5.80;94.50;;;;;;4971571;28;20564;-82
2021/03/13 03:23:28;;;;;;;18.55;5.63;;;5.80;94.50;;;;;;4975880;28;20130;-81
2021/03/13 03:25:55;;;;;;;19.98;5.00;;;5.80;94.60;;;;;;4974823;28;20500;-79
2021/03/13 03:28:21;;;;;;;20.17;5.55;;;5.80;94.70;;;;;;4972757;28;20513;-83
2021/03/13 03:30:48;;;;;;;22.63;5.50;;;5.80;94.80;;;;;;4976048;28;20042;-80
2021/03/13 03:33:14;;;;;;;22.17;5.35;;;5.70;94.70;;;;;;4955041;28;20589;-77
2021/03/13 03:35:41;;;;;;;15.48;5.18;;;5.80;94.80;;;;;;4949264;28;20050;-81
2021/03/13 03:38:08;;;;;;;17.40;4.93;;;5.80;94.70;;;;;;4963776;28;20496;-80
2021/03/13 03:40:35;;;;;;;20.30;5.25;;;5.80;94.80;;;;;;4940046;28;21608;-82
2021/03/13 03:43:14;;;;;;;12.27;4.72;;;5.80;94.80;;;;;;4962836;28;20034;-81
2021/03/13 03:45:42;;;;;;;17.80;4.25;;;5.70;94.80;;;;;;4961066;28;20505;-84
2021/03/13 03:48:14;;;;;;;12.27;4.40;;;5.70;94.80;;;;;;4965422;28;20062;-81
2021/03/13 03:50:43;;;;;;;15.73;4.85;;;5.70;94.90;;;;;;4962435;28;20081;-84
2021/03/13 03:53:14;;;;;;;12.88;4.38;;;5.70;95.00;;;;;;4953439;28;20046;-81
2021/03/13 03:55:47;;;;;;;10.60;4.82;;;5.70;95.10;;;;;;4972477;28;20042;-84
2021/03/13 03:58:18;;;;;;;14.48;4.47;;;5.70;95.20;;;;;;4966789;28;20330;-80
2021/03/13 04:00:44;;;;;;;14.35;4.75;;;5.60;95.20;;;;;;4986662;28;20046;-81
2021/03/13 04:03:13;;;;;;;10.38;4.90;;;5.60;95.30;;;;;;4942896;28;20050;-82
2021/03/13 04:05:41;;;;;;;12.75;5.00;;;5.60;95.40;;;;;;4975414;28;20038;-83
2021/03/13 04:08:10;;;;;;;10.68;4.72;;;5.60;95.50;;;;;;4972683;28;20232;-82
2021/03/13 04:10:37;;;;;;;12.95;4.90;;;5.50;95.50;;;;;;4970577;28;20038;-82
2021/03/13 04:13:04;;;;;;;13.18;6.03;;;5.50;95.70;;;;;;4972618;28;20046;-83
2021/03/13 04:15:32;;;;;;;16.33;6.10;;;5.50;95.70;;;;;;4982215;28;20046;-80
2021/03/13 04:17:58;;;;;;;18.23;6.53;;;5.50;95.80;;;;;;4954207;28;20232;-84
2021/03/13 04:20:24;;;;;;;16.25;5.45;;;5.40;95.80;;;;;;4950345;28;20100;-82
2021/03/13 04:22:52;;;;;;;14.00;5.60;;;5.40;95.90;;;;;;4952546;28;20046;-82
2021/03/13 04:25:19;;;;;;;13.52;5.95;;;5.50;95.90;;;;;;4962767;28;20047;-81
2021/03/13 04:27:45;;;;;;;15.85;5.75;;;5.40;96.00;;;;;;4966146;28;20039;-80
2021/03/13 04:30:14;;;;;;;13.25;5.35;;;5.40;96.00;;;;;;4955291;28;20175;-82
2021/03/13 04:32:41;;;;;;;13.13;5.43;;;5.40;96.00;;;;;;4962282;28;20034;-80
2021/03/13 04:35:08;;;;;;;12.18;4.60;;;5.40;96.00;;;;;;4993588;28;20105;-79
2021/03/13 04:37:35;;;;;;;9.88;5.20;;;5.40;96.00;;;;;;4977452;28;20321;-81
2021/03/13 04:40:01;;;;;;;13.30;5.35;;;5.30;96.10;;;;;;4975595;28;20034;-80
2021/03/13 04:42:27;;;;;;;18.85;6.80;;;5.30;96.20;;;;;;4977312;28;20089;-78
2021/03/13 04:44:52;;;;;;;15.45;6.00;;;5.30;96.20;;;;;;4974865;28;20046;-76
2021/03/13 04:47:18;;;;;;;14.73;6.35;;;5.30;96.30;;;;;;4970789;28;20464;-79
2021/03/13 04:49:44;;;;;;;13.48;6.15;;;5.30;96.30;;;;;;4954528;28;20045;-80
2021/03/13 04:52:10;;;;;;;14.85;6.75;;;5.40;96.40;;;;;;4976223;28;20485;-80
2021/03/13 04:54:36;;;;;;;13.60;6.18;;;5.30;96.50;;;;;;4974379;28;20046;-77
2021/03/13 04:57:03;;;;;;;10.32;6.57;;;5.30;96.50;;;;;;4954398;28;20255;-78
2021/03/13 04:59:30;;;;;;;11.65;5.65;;;5.30;96.50;;;;;;4972165;28;20507;-78
2021/03/13 05:01:55;;;;;;;13.57;7.82;;;5.40;96.60;;;;;;4963253;28;20041;-77
2021/03/13 05:04:21;;;;;;;9.98;6.30;;;5.40;96.70;;;;;;4962426;28;20054;-79
2021/03/13 05:06:47;;;;;;;12.48;6.88;;;5.40;96.70;;;;;;4973546;28;20038;-78
2021/03/13 05:09:12;;;;;;;8.35;5.70;;;5.40;96.70;;;;;;4970542;28;20042;-79
2021/03/13 05:11:38;;;;;;;9.00;6.32;;;5.50;96.70;;;;;;4972126;28;20053;-79
2021/03/13 05:14:04;;;;;;;16.83;7.63;;;5.50;96.70;;;;;;4973629;28;20042;-79
2021/03/13 05:16:30;;;;;;;10.70;5.97;;;5.50;96.70;;;;;;4936648;28;20058;-77
2021/03/13 05:18:56;;;;;;;11.10;6.10;;;5.50;96.70;;;;;;4969125;28;20364;-78
2021/03/13 05:21:22;;;;;;;15.70;7.22;;;5.50;96.70;;;;;;4969647;28;20054;-80
2021/03/13 05:23:49;;;;;;;9.98;6.70;;;5.50;96.70;;;;;;4969790;28;20038;-79
2021/03/13 05:26:15;;;;;;;12.07;5.80;;;5.60;96.70;;;;;;4972055;28;20527;-82
2021/03/13 05:28:40;;;;;;;12.32;7.50;;;5.60;96.70;;;;;;4939870;28;20117;-77
2021/03/13 05:31:06;;;;;;;16.67;7.70;;;5.60;96.70;;;;;;4976527;28;20089;-79
2021/03/13 05:33:32;;;;;;;14.93;7.55;;;5.60;96.70;;;;;;4976772;28;20089;-82
2021/03/13 05:35:58;;;;;;;18.67;7.28;;;5.70;96.80;;;;;;4973702;28;20030;-78
2021/03/13 05:38:24;;;;;;;12.50;6.97;;;5.70;96.80;;;;;;4971876;28;20162;-81
2021/03/13 05:40:49;;;;;;;11.52;7.07;;;5.70;96.80;;;;;;4969718;28;20049;-77
2021/03/13 05:43:15;;;;;;;12.18;6.55;;;5.70;96.70;;;;;;4952513;28;20133;-83
2021/03/13 05:45:42;;;;;;;20.35;8.02;;;5.70;96.70;;;;;;4959048;28;20445;-80
2021/03/13 05:48:09;;;;;;;11.38;6.22;;;5.80;96.80;;;;;;4971345;28;20485;-82
2021/03/13 05:50:35;;;;;;;12.27;5.90;;;5.80;96.80;;;;;;4989562;28;20034;-80
2021/03/13 05:53:03;;;;;;;14.27;7.38;;;5.80;96.80;;;;;;4949107;28;20034;-79
2021/03/13 05:55:30;;;;;;;14.00;7.45;;;5.80;96.80;;;;;;4967537;28;20454;-81
2021/03/13 05:57:57;;;;;;;13.52;6.38;;;5.80;96.80;;;;;;4964361;28;20042;-80
2021/03/13 06:00:23;;;;;;;10.52;6.43;;;5.90;96.80;;;;;;4964123;28;20050;-82
2021/03/13 06:02:50;;;;;;;13.65;7.70;;;5.90;96.80;;;;;;4949332;28;20034;-81
2021/03/13 06:05:16;;;;;;;10.98;6.95;;;5.90;96.80;;;;;;4946477;28;20035;-81
2021/03/13 06:07:43;;;;;;;10.50;6.97;;;5.90;97.10;;;;;;4947680;28;21312;-80
2021/03/13 06:10:13;;;;;;;10.63;6.43;;;6.00;96.80;;;;;;4963500;28;20034;-83
2021/03/13 06:12:38;;;;;;;8.45;5.80;;;6.00;96.80;;;;;;4965079;28;20049;-81
2021/03/13 06:15:05;;;;;;;10.07;5.22;;;6.00;96.80;;;;;;4976486;28;20460;-80
2021/03/13 06:18:00;;;;;;;11.18;7.50;;;6.10;96.80;;;;;;4962448;28;21798;-81
2021/03/13 06:20:33;;;;;;;10.90;6.63;;;6.10;96.80;;;;;;4971264;28;20061;-80
2021/03/13 06:23:17;;;;;;;14.40;6.55;;;6.20;96.80;;;;;;4965177;28;20065;-81
2021/03/13 06:25:43;;;;;;;12.02;4.97;;;6.20;96.70;;;;;;4960743;28;20046;-83
2021/03/13 06:28:15;;;;;;;10.02;5.65;;;6.20;96.70;;;;;;4959009;28;20042;-80
2021/03/13 06:30:48;;;;;;;8.23;4.65;;;6.20;96.60;;;;;;4961170;28;20049;-83
2021/03/13 06:33:26;;;;;;;8.43;4.82;;;6.30;96.60;;;;;;4959051;28;20402;-84
2021/03/13 06:35:54;;;;;;;8.45;4.88;;;6.30;96.90;;;;;;4965758;28;20512;-82
2021/03/13 06:38:23;;;;;;;10.70;5.28;;;6.40;96.60;;;;;;4966372;28;20038;-81
2021/03/13 06:40:51;;;;;;;6.88;5.32;;;6.40;96.50;;;;;;4968523;28;20145;-83
2021/03/13 06:43:29;;;;;;;9.55;4.28;;;6.40;96.50;;;;;;4973900;28;20520;-82
2021/03/13 06:46:05;;;;;;;11.38;5.00;;;6.40;96.40;;;;;;4966654;28;20042;-82
2021/03/13 06:48:44;;;;;;;9.70;4.68;;;6.40;96.40;;;;;;4968762;28;20038;-84
2021/03/13 06:51:28;;;;;;;9.20;5.38;;;6.40;96.50;;;;;;4979200;28;20066;-82
2021/03/13 06:54:10;;;;;;;8.48;4.50;;;6.40;96.80;;;;;;4967197;28;20047;-82
2021/03/13 06:56:41;;;;;;;6.67;4.37;;;6.40;96.50;;;;;;4963781;28;20050;-83
2021/03/13 06:59:19;;;;;;;6.45;3.78;;;6.40;96.40;;;;;;4968440;28;20037;-82
2021/03/13 07:01:45;;;;;;;6.25;3.90;;;6.50;96.40;;;;;;4945243;28;20038;-84
2021/03/13 07:04:12;;;;;;;4.78;2.83;;;6.50;96.40;;;;;;4970493;28;20047;-85
2021/03/13 07:06:45;;;;;;;2.65;1.48;;;6.50;96.30;;;;;;4958588;28;20117;-84
2021/03/13 07:09:14;;;;;;;1.25;1.00;;;6.50;96.20;;;;;;4972676;28;20030;-87
2021/03/13 07:11:39;;;;;;;4.70;0.93;;;6.40;95.70;;;;;;4958280;28;20066;-81
2021/03/13 07:14:05;;;;;;;4.10;1.00;;;6.20;94.50;;;;;;4992411;28;20062;-85
2021/03/13 07:16:37;;;;;;;7.20;0.90;;;5.80;94.70;;;;;;4962041;28;20064;-89
2021/03/13 07:19:10;;;;;;;9.07;1.00;;;5.50;95.00;;;;;;4976086;28;20142;-89
2021/03/13 07:21:39;;;;;;;3.63;1.02;;;5.20;95.30;;;;;;4970324;28;20065;-85
2021/03/13 07:24:13;;;;;;;5.65;1.10;;;5.10;95.70;;;;;;4986803;28;20038;-89
2021/03/13 07:26:46;;;;;;;8.07;1.23;;;5.00;95.80;;;;;;4978123;28;20045;-88
2021/03/13 07:29:15;;;;;;;9.98;1.25;;;5.00;96.00;;;;;;4973519;28;20042;-88
2021/03/13 07:31:45;;;;;;;5.10;1.08;;;4.90;95.90;;;;;;4971493;28;20111;-85
2021/03/13 07:34:19;;;;;;;14.73;1.63;;;4.90;95.90;;;;;;4987529;28;20129;-86
2021/03/13 07:36:51;;;;;;;5.88;0.90;;;4.90;96.00;;;;;;4973805;28;20041;-86
2021/03/13 07:39:20;;;;;;;4.32;1.05;;;5.00;96.10;;;;;;4994754;28;20354;-88
2021/03/13 07:42:10;;;;;;;9.63;1.17;;;5.00;95.90;;;;;;4985893;28;20038;-87
2021/03/13 07:44:37;;;;;;;5.47;1.23;;;5.10;95.90;;;;;;4988475;28;20104;-86
2021/03/13 07:47:03;;;;;;;10.52;1.38;;;5.10;95.50;;;;;;4986013;28;20034;-89
2021/03/13 07:49:33;;;;;;;8.40;1.52;;;5.30;95.20;;;;;;4988111;28;20053;-85
2021/03/13 07:52:05;;;;;;;9.88;1.48;;;5.30;95.20;;;;;;4989968;28;20038;-85
2021/03/13 07:54:35;;;;;;;8.40;1.25;;;5.40;95.00;;;;;;4972285;28;20347;-86
2021/03/13 07:57:04;;;;;;;9.38;1.30;;;5.50;94.80;;;;;;4977854;28;20031;-86
2021/03/13 07:59:51;;;;;;;9.38;1.63;;;5.50;94.70;;;;;;4989618;28;20382;-83
2021/03/13 08:02:31;;;;;;;12.15;1.30;;;5.60;94.80;;;;;;4988841;28;20368;-85
2021/03/13 08:05:04;;;;;;;17.55;2.40;;;5.70;94.60;;;;;;4989851;28;20060;-86
2021/03/13 08:08:00;;;;;;;12.20;1.77;;;5.80;94.40;;;;;;4960210;28;20073;-81
2021/03/13 08:10:51;;;;;;;14.60;1.80;;;6.00;94.00;;;;;;4977500;28;20030;-86
2021/03/13 08:13:25;;;;;;;12.50;1.90;;;6.10;93.70;;;;;;4975249;28;20531;-86
2021/03/13 08:16:00;;;;;;;9.48;1.90;;;6.20;93.90;;;;;;4988645;28;20040;-86
2021/03/13 08:18:43;;;;;;;13.73;2.40;;;6.20;93.70;;;;;;4970167;28;20069;-85
2021/03/13 08:21:18;;;;;;;18.02;3.17;;;6.20;93.40;;;;;;4974631;28;20474;-85
2021/03/13 08:24:11;;;;;;;12.40;2.30;;;6.30;93.50;;;;;;4971395;28;20034;-84
2021/03/13 08:26:39;;;;;;;18.23;2.63;;;6.40;93.00;;;;;;4969417;28;20047;-83
2021/03/13 08:29:09;;;;;;;17.08;2.17;;;6.40;93.30;;;;;;4987385;28;20034;-87
2021/03/13 08:31:39;;;;;;;13.90;2.63;;;6.40;92.90;;;;;;4990047;28;20038;-86
2021/03/13 08:34:05;;;;;;;16.88;2.47;;;6.40;92.80;;;;;;4986878;28;20550;-86
2021/03/13 08:36:51;;;;;;;14.27;2.08;;;6.50;92.60;;;;;;4985743;28;20081;-85
2021/03/13 08:39:35;;;;;;;11.25;1.88;;;6.60;92.00;;;;;;4959909;28;20425;-85
2021/03/13 08:42:01;;;;;;;18.70;2.13;;;6.60;91.80;;;;;;4976016;28;20042;-85
2021/03/13 08:44:35;;;;;;;10.32;1.95;;;6.60;92.60;;;;;;4923832;28;20054;-85
2021/03/13 08:47:05;;;;;;;18.10;2.38;;;6.60;92.30;;;;;;4971112;28;20073;-88
2021/03/13 08:49:31;;;;;;;15.55;3.00;;;6.60;92.50;;;;;;4974130;28;20069;-86
2021/03/13 08:52:19;;;;;;;19.75;2.85;;;6.60;92.30;;;;;;4994644;28;20027;-85
2021/03/13 08:54:47;;;;;;;18.85;3.08;;;6.60;92.30;;;;;;4970560;28;20089;-86
2021/03/13 08:57:17;;;;;;;13.18;2.60;;;6.70;92.20;;;;;;4965892;28;20049;-85
2021/03/13 08:59:53;;;;;;;17.58;3.05;;;6.70;92.30;;;;;;4969272;28;20405;-86
2021/03/13 09:02:28;;;;;;;19.15;2.75;;;6.80;91.80;;;;;;4967862;28;20050;-83
2021/03/13 09:05:09;;;;;;;17.08;3.10;;;6.70;92.10;;;;;;4961293;28;20057;-87
2021/03/13 09:07:36;;;;;;;22.73;2.60;;;6.60;92.40;;;;;;4970865;28;20043;-84
2021/03/13 09:10:03;;;;;;;18.98;2.92;;;6.60;92.90;;;;;;4949719;28;20042;-83
2021/03/13 09:12:32;;;;;;;21.45;3.35;;;6.60;93.20;;;;;;4972198;28;20074;-82
2021/03/13 09:15:00;;;;;;;16.90;2.55;;;6.70;93.50;;;;;;4973517;28;20270;-83
2021/03/13 09:17:29;;;;;;;18.55;2.28;;;6.70;93.60;;;;;;4971684;28;20092;-86
2021/03/13 09:19:59;;;;;;;12.63;2.25;;;6.60;93.40;;;;;;4972703;28;20046;-83
2021/03/13 09:22:26;;;;;;;18.65;2.78;;;6.50;93.70;;;;;;4959884;28;20048;-87
2021/03/13 09:25:02;;;;;;;9.68;1.98;;;6.40;93.60;;;;;;4973631;28;20983;-85
2021/03/13 09:27:36;;;;;;;8.93;2.03;;;6.10;93.20;;;;;;4971976;28;20262;-87
2021/03/13 09:30:06;;;;;;;10.98;1.70;;;5.80;93.60;;;;;;4955611;28;20320;-83
2021/03/13 09:32:31;;;;;;;16.60;1.80;;;5.60;94.10;;;;;;4960635;28;20038;-87
2021/03/13 09:34:57;;;;;;;15.73;2.00;;;5.50;94.10;;;;;;4933553;28;20518;-86
2021/03/13 09:37:24;;;;;;;20.90;2.40;;;5.40;94.20;;;;;;4951197;28;20402;-84
2021/03/13 09:39:59;;;;;;;11.18;2.00;;;5.40;94.30;;;;;;4979492;28;20060;-85
2021/03/13 09:42:26;;;;;;;13.88;2.03;;;5.40;94.60;;;;;;4968046;28;20104;-87
2021/03/13 09:45:02;;;;;;;19.05;2.38;;;5.50;94.80;;;;;;4992694;28;20034;-85
2021/03/13 09:47:38;;;;;;;15.77;2.13;;;5.60;94.90;;;;;;4962221;28;20050;-87
2021/03/13 09:50:12;;;;;;;22.40;2.85;;;5.70;94.80;;;;;;4962429;28;20572;-84
2021/03/13 09:52:49;;;;;;;14.05;2.40;;;5.70;94.70;;;;;;4966869;28;20048;-88
2021/03/13 09:55:20;;;;;;;15.88;2.63;;;5.90;92.70;;;;;;4949295;28;20398;-85
2021/03/13 09:57:51;;;;;;;15.90;2.55;;;6.20;92.40;;;;;;4969853;28;20061;-85
2021/03/13 10:00:29;;;;;;;13.75;2.30;;;6.40;91.60;;;;;;4970324;28;20489;-84
2021/03/13 10:02:56;;;;;;;12.35;2.03;;;6.80;90.70;;;;;;4966467;28;20469;-86
2021/03/13 10:05:25;;;;;;;13.70;2.08;;;7.10;90.60;;;;;;4947052;28;20041;-87
2021/03/13 10:07:52;;;;;;;13.35;1.88;;;7.30;90.10;;;;;;4965456;28;20038;-86
2021/03/13 10:10:26;;;;;;;13.38;1.80;;;7.30;88.30;;;;;;4957903;28;20038;-84
2021/03/13 10:13:05;;;;;;;12.60;2.33;;;7.20;88.10;;;;;;4970530;28;20030;-83
2021/03/13 10:15:32;;;;;;;16.73;2.40;;;7.10;88.10;;;;;;4949059;28;20478;-85
2021/03/13 10:18:04;;;;;;;14.00;2.58;;;7.20;90.10;;;;;;4970955;28;20030;-82
2021/03/13 10:20:53;;;;;;;18.30;1.92;;;7.30;89.20;;;;;;4963573;28;20074;-85
2021/03/13 10:23:35;;;;;;;12.82;2.03;;;7.40;87.40;;;;;;4967406;28;20038;-84
2021/03/13 10:26:06;;;;;;;10.63;1.63;;;7.20;89.20;;;;;;4961862;28;20043;-83
2021/03/13 10:28:43;;;;;;;12.02;2.03;;;6.80;89.30;;;;;;4964310;28;20442;-86
2021/03/13 10:31:19;;;;;;;13.98;2.40;;;6.50;90.10;;;;;;4951176;28;20699;-84
2021/03/13 10:33:48;;;;;;;13.82;2.20;;;6.30;90.70;;;;;;4957306;28;20473;-87
2021/03/13 10:36:16;;;;;;;13.43;2.10;;;6.30;91.10;;;;;;4967424;28;20060;-89
2021/03/13 10:38:46;;;;;;;15.68;2.30;;;6.30;91.00;;;;;;4972024;28;20319;-87
2021/03/13 10:41:17;;;;;;;18.98;2.63;;;6.40;90.90;;;;;;4965784;28;20046;-87
2021/03/13 10:43:47;;;;;;;15.43;2.20;;;6.50;90.90;;;;;;4983192;28;20038;-84
2021/03/13 10:46:20;;;;;;;17.27;2.67;;;6.60;90.70;;;;;;4989405;28;20046;-85
2021/03/13 10:48:46;;;;;;;18.90;2.80;;;6.70;90.50;;;;;;4948467;28;20038;-85
2021/03/13 10:51:29;;;;;;;13.38;2.58;;;6.90;90.60;;;;;;4961066;28;20038;-84
2021/03/13 10:53:57;;;;;;;15.75;3.00;;;7.10;90.60;;;;;;4963127;28;20042;-89
2021/03/13 10:56:23;;;;;;;18.92;3.08;;;7.20;90.40;;;;;;4967902;28;20041;-85
2021/03/13 10:58:53;;;;;;;21.38;3.33;;;7.20;90.30;;;;;;4949477;28;20049;-87
2021/03/13 11:01:20;;;;;;;22.52;2.70;;;7.10;90.40;;;;;;4972413;28;20034;-86
2021/03/13 11:03:49;;;;;;;19.42;3.10;;;6.90;90.30;;;;;;4957203;28;20433;-86
2021/03/13 11:06:33;;;;;;;9.68;1.80;;;6.60;90.80;;;;;;4960456;28;20069;-87
2021/03/13 11:09:03;;;;;;;8.73;2.30;;;6.20;91.20;;;;;;4959167;28;20690;-87
2021/03/13 11:11:28;;;;;;;22.65;2.40;;;5.90;92.00;;;;;;4977718;28;20075;-87
2021/03/13 11:13:55;;;;;;;14.02;1.65;;;5.60;92.50;;;;;;4969142;28;20124;-84
2021/03/13 11:16:22;;;;;;;13.98;1.92;;;5.30;92.60;;;;;;4968884;28;20038;-87
2021/03/13 11:18:59;;;;;;;11.18;1.40;;;4.90;93.20;;;;;;4968103;28;20041;-86
2021/03/13 11:21:25;;;;;;;14.23;1.40;;;4.60;93.80;;;;;;4953069;28;20501;-88
2021/03/13 11:23:52;;;;;;;9.73;1.30;;;4.50;94.20;;;;;;4971943;28;20042;-88
2021/03/13 11:26:19;;;;;;;9.05;1.60;;;4.50;94.40;;;;;;4966356;28;20519;-88
2021/03/13 11:28:45;;;;;;;8.10;2.25;;;4.60;94.60;;;;;;4927725;28;20234;-86
2021/03/13 11:31:11;;;;;;;14.00;1.73;;;4.60;94.80;;;;;;4957061;28;20153;-86
2021/03/13 11:33:37;;;;;;;15.02;2.15;;;4.80;94.60;;;;;;4959358;28;20061;-86
2021/03/13 11:36:04;;;;;;;21.30;2.67;;;5.00;94.60;;;;;;4959645;28;20035;-86
2021/03/13 11:38:31;;;;;;;19.05;2.53;;;5.10;94.40;;;;;;4949500;28;20046;-84
2021/03/13 11:40:57;;;;;;;23.13;2.42;;;5.30;94.30;;;;;;4968420;28;20034;-86
2021/03/13 11:43:23;;;;;;;14.32;2.15;;;5.40;94.30;;;;;;4941995;28;20097;-83
2021/03/13 11:45:49;;;;;;;18.10;3.15;;;5.50;93.90;;;;;;4952391;28;20274;-84
2021/03/13 11:48:17;;;;;;;19.60;2.55;;;5.60;94.00;;;;;;4954508;28;20065;-87
2021/03/13 11:50:43;;;;;;;15.20;2.30;;;5.80;94.80;;;;;;4969549;28;20041;-85
2021/03/13 11:53:09;;;;;;;18.58;2.80;;;6.10;94.50;;;;;;4963663;28;20149;-86
2021/03/13 11:55:35;;;;;;;17.73;2.63;;;6.30;93.90;;;;;;4970590;28;20045;-86
2021/03/13 11:58:01;;;;;;;17.80;2.67;;;6.40;93.50;;;;;;4935830;28;20684;-84
2021/03/13 12:00:27;;;;;;;24.63;2.60;;;6.40;92.90;;;;;;4943851;28;20047;-86
2021/03/13 12:02:53;;;;;;;20.85;2.97;;;6.30;92.50;;;;;;4958809;28;20043;-82
2021/03/13 12:05:19;;;;;;;11.43;2.33;;;6.30;92.60;;;;;;4960508;28;20541;-87
2021/03/13 12:07:45;;;;;;;12.43;1.77;;;6.20;92.20;;;;;;4967228;28;20054;-87
2021/03/13 12:10:12;;;;;;;10.15;1.10;;;6.00;92.20;;;;;;4949522;28;20062;-88
2021/03/13 12:12:38;;;;;;;7.45;1.38;;;5.70;92.50;;;;;;4980908;28;20619;-86
2021/03/13 12:15:06;;;;;;;5.88;0.98;;;5.20;92.60;;;;;;4980902;28;20034;-87
2021/03/13 12:17:33;;;;;;;3.97;0.55;;;4.90;93.20;;;;;;4962067;28;20481;-83
2021/03/13 12:19:59;;;;;;;7.78;0.90;;;4.60;93.90;;;;;;4991906;28;20172;-85
2021/03/13 12:22:26;;;;;;;6.63;1.20;;;4.40;94.50;;;;;;4945591;28;20039;-85
2021/03/13 12:24:52;;;;;;;11.27;1.20;;;4.40;94.80;;;;;;4937449;28;21239;-85
2021/03/13 12:27:19;;;;;;;11.57;1.48;;;4.30;95.10;;;;;;4959819;28;20038;-86
2021/03/13 12:29:45;;;;;;;8.00;1.20;;;4.30;95.10;;;;;;4934948;28;20094;-83
2021/03/13 12:32:11;;;;;;;7.10;0.95;;;4.40;95.00;;;;;;4945912;28;20054;-85
2021/03/13 12:34:36;;;;;;;11.10;1.67;;;4.40;94.80;;;;;;4976387;28;20157;-86
2021/03/13 12:37:02;;;;;;;8.38;1.60;;;4.50;95.10;;;;;;4976020;28;20034;-87
2021/03/13 12:39:28;;;;;;;13.93;2.08;;;4.70;95.20;;;;;;4967772;28;20042;-85
2021/03/13 12:41:55;;;;;;;13.07;2.15;;;4.80;94.80;;;;;;4959085;28;20061;-83
2021/03/13 12:44:21;;;;;;;16.17;2.60;;;4.80;94.60;;;;;;4953187;28;20035;-85
2021/03/13 12:46:47;;;;;;;15.32;2.45;;;4.80;94.90;;;;;;4956322;28;20034;-86
2021/03/13 12:49:13;;;;;;;22.27;2.90;;;4.80;94.90;;;;;;4968290;28;20496;-87
2021/03/13 12:51:38;;;;;;;19.27;3.30;;;4.80;95.00;;;;;;4920650;28;20047;-84
2021/03/13 12:54:05;;;;;;;26.00;2.92;;;4.80;95.10;;;;;;4974229;28;20042;-87
2021/03/13 12:56:31;;;;;;;22.33;3.03;;;4.90;95.20;;;;;;4945982;28;20564;-86
2021/03/13 12:58:57;;;;;;;22.00;3.03;;;4.90;95.30;;;;;;4984234;28;20034;-87
2021/03/13 13:01:22;;;;;;;12.02;2.10;;;4.90;95.40;;;;;;4980679;28;20035;-88